Toko, Russia
Current Conditions -  °F | °C
As of 6:30 AM on Saturday 20 Dec 2014 (Local Time) from UEEE Reporting Station
Light Snow Light Snow  
Wind Chill: -42°   Ceiling: 20000
Heat Index: -42°   Visibility: 1.5mi
Dew Point: -49°   Wind: 2mph
Humidity: 67%   Direction: 40°NE
Pressure: 30.27"   Gusts: NA
Location:  56.18°N, 131.02°E
Report Text: UEEE 192030Z 04001MPS 2400 -SN BR OVC200 M41/M45 Q1025 NOSIGRMK QFE760 23490150
Loading
Personal Weather Stations






























Interactive Weather Map New forecast layout! Learn more

10-Day Weather Forecast

Advertisements
Track Severe Weather on mobile